Latest METARs, TAFs and NOTAMs for LIRQ


---------------------------------------------------------------------------
	(OBSERVATIONS)
LIRQ 231020Z VRB02KT CAVOK 24/13 Q1018=
LIRQ 230950Z 30003KT 210V020 CAVOK 23/12 Q1018=
LIRQ 230920Z VRB03KT CAVOK 22/13 Q1018=
LIRQ 230850Z VRB03KT CAVOK 22/13 Q1019=
LIRQ 230820Z VRB02KT CAVOK 21/12 Q1019=
LIRQ 230750Z VRB02KT CAVOK 20/13 Q1018=
---------------------------------------------------------------------------
	(FC)
Sorry, FC For LIRQ Not Found
---------------------------------------------------------------------------
	(TERMINAL AREA FORECAST)
LIRQ 230500Z 2306/2406 VRB05KT 9999 SCT030 BECMG 2309/2311
    22010KT=
---------------------------------------------------------------------------
	(NOTAMS)


LIRQ A1546/17 FIRENZE VORTAC 'FRZ' FREQ 115.20MHZ CH99X UNSERVICEABLE
    REF AIP AD LIRQ 1-7. 15 MAR 15:17 2017 UNTIL 13 JUN 10:00
    2017 ESTIMATED. CREATED: 15 MAR 15:17 2017

LIRQ B1315/17 INITIAL CLIMB PROCEDURE/STANDARD INSTRUMENT DEPARTURE
    PROCEDURE RWY23 AND VISUAL INITIAL CLIMB PROCEDURE RWY05
    FLW SID SUSPENDED: - BALUK 7A - FRZ 5A - MAREL 8A DUE TO
    FRZ VORTAC UNSERVICEABLE. REF AIP AD 2 LIRQ 6-1/7. 16 MAR
    09:46 2017 UNTIL 13 JUN 10:00 2017 ESTIMATED. CREATED: 16
    MAR 09:46 2017

LIRQ B1316/17 INITIAL CLIMB PROCEDURE/STANDARD INSTRUMENT DEPARTURE
    PROCEDURE RWY23 AND VISUAL INITIAL CLIMB PROCEDURE/STANDARD
    INSTRUMENT DEPARTURE PROCEDURE RWY 05 (TO BE USED IN CASE
    OF PRT VOR UNSERVICEABLE) FLW SID SUSPENDED: - FRZ 5P - KUGIX
    5C - BALUK 7C - KUGIX 5B DUE TO FRZ VORTAC UNSERVICEABLE.
    REF AIP AD 2 LIRQ 6-9/11 AND 6-13/15. 16 MAR 09:46 2017 UNTIL
    13 JUN 10:00 2017 ESTIMATED. CREATED: 16 MAR 09:46 2017

LIRQ B1317/17 INSTRUMENT APPROACH PROCEDURE FLW IAP SUSPENDED:
    - ILS V RWY 05 CAT A/B/C - LOC V RWY 05 CAT A/B/C DUE TO
    FRZ VORTAC UNSERVICEABLE. REF AIP AD 2 LIRQ 5-11/13. 16 MAR
    09:46 2017 UNTIL 13 JUN 10:00 2017 ESTIMATED. CREATED: 16
    MAR 09:47 2017

LIRQ B1319/17 STANDARD INSTRUMENT ARRIVAL PROCEDURE FLW STAR
    SUSPENDED: - FRZ 1D - FRZ 2X - MAREL 1D - MAREL 2X DUE TO
    FRZ VORTAC UNSERVICEABLE REF AIP AD 2 LIRQ 4-13/15. 16 MAR
    09:48 2017 UNTIL 13 JUN 10:00 2017 ESTIMATED. CREATED: 16
    MAR 09:48 2017

LIRQ B1420/17 REF AIP AD 2 LIRQ 6-1 AND 6-3/4 STANDARD INSTRUMENT
    DEPARTURE PROCEDURE RWY23 - BALUK 7B MODIFY REMARK AS FLW:
    MINIMUM CLIMB GRADIENT UNTIL REACHING FL120: 389FT/NM (6.4
    PER CENT). IAS MAX 210KT UNTIL ESTABLISHING ON RDL 305 PRT
    VOR. - BIKTU 5A (ATC DISCRETION) MODIFY DESCRIPTION AS FLW:
    AT 7 NM PRT DME (INT RDL 171 FRZ VORTAC) TURN RIGHT (IAS
    MAX 210KT) ON HEADING 080DEG TO JOIN AND FOLLOW RDL 050 PRT
    VOR BOUND TO BIKTU. - GAVRA 5A MODIFY DESCRIPTION AS FLW:
    AT 7 NM PRT DME (INT RDL 171 FRZ VORTAC) TURN RIGHT (IAS
    MAX 210KT) BOUND TO PRT VOR. LEAVE PRT VOR ON RDL 092 PRT
    VOR BOUND TO GAVRA. MODIFY REMARK AS FLW: MINIMUM CLIMB GRADIENT
    UNTIL PASSING 5000FT: 389FT/NM (6.4 PER CENT). IAS MAX 210KT
    UNTIL PRT VOR. - KUGIX 7A MODIFY REMARK AS FLW: MINIMUM CLIMB
    GRADIENT UNTIL PASSING 5000FT: 389FT/NM (6.4 PER CENT). IAS
    MAX 210KT UNTIL PRT VOR. - OKMAP 6A MODIFY DESCRIPTION AS
    FLW: AT 7 NM PRT DME (INT RDL 171 FRZ VORTAC) TURN RIGHT
    (IAS MAX 210KT) ON HEADING 062DEG TO JOIN RDL 017 PRT VOR
    BOUND TO OKMAP. 28 MAR 00:00 2017 UNTIL PERM. CREATED: 21
    MAR 14:02 2017

LIRQ B1422/17 REF AIP AD 2 LIRQ 6-5 'VISUAL INITIAL CLIMB RWY
    05' REFERRED TO FLW SID: - BIKTU 5A (ATC DISCRETION) - GAVRA
    5A - KUGIX 7A - OKMAP 6A ON PLAN VIEW MODIFY SPEED RESTRICTION
    TO READ IAS MAX 210KT INSTEAD OF 185KT. 28 MAR 00:00 2017
    UNTIL PERM. CREATED: 21 MAR 14:35 2017

LIRQ B1784/17 REF AIP AD 2 LIRQ 2-5 'AIRCRAFT PARKING DOCKING
    CHART' BOX 'STAND NUMBER - MAX ACFT ALLOWED' ACFT STANDS
    201, 203 AND 206 MAX ACFT ALLOWED CHG TO READ: - 201 - GLEX/GLF5/E190
    - 203 - GLEX/GLF5/A318/A319/E190 - 206 - GLEX/GLF5/A318/A319/E190.
    07 APR 18:18 2017 UNTIL PERM. CREATED: 07 APR 18:18 2017

LIRQ B2022/17 LOCALIZER (ILS) RWY05 UNSERVICEABLE DUE TO MAINT
    REF AIP AD 2 LIRQ 1-7. 24 MAY 04:00 2017 UNTIL 24 MAY 16:00
    2017. CREATED: 24 APR 08:39 2017

LIRQ B2184/17 REF AOC TYPE B NR RQ 3/3 NEW OBSTACLE ERECTED BUILDING
    PENETRATING TAKE-OFF CLIMB SURFACE RWY05 (IN CURVE) POINTS
    PSN COORD (WGS-84): - 434929.7N 0111314.4E - 434928.3N 0111316.0E
    - 434929.2N 0111317.1E - 434930.4N 0111315.5E - 434929.7N
    0111314.4E MAX ELEV AGL 16.6M/54.5FT MAX ELEV AMSL 75.1M/246.4FT
    ICAO SIGNAL UNPROVIDED. 03 MAY 08:27 2017 UNTIL PERM. CREATED:
    03 MAY 08:27 2017

LIRQ B2342/17 TRIGGER NOTAM-PERM AIP AIRAC AMDT 5/17 EFFECTIVE
    DATE 22 JUN 2017 FIRENZE/PERETOLA AD COMPLETE REVIEW OF INSTRUMENT
    APPROACH PROCEDURE AND IMPLEMENTATION OF THE FOLLOWING ONES:
    - RNAV (GNSS) Z RWY 05 CAT A/B/C - RNAV (GNSS) Y RWY 05 CAT
    A/B/C AIRAC IS POSTED AND AVBL ON WEBSITE WWW.ENAV.IT. 22
    JUN 00:00 2017 UNTIL 05 JUL 23:59 2017. CREATED: 11 MAY 14:07
    2017

LIRQ B2547/17 EDGE LIGHTS ON APRON 100, 200 AND 300 UNSERVICEABLE
    DUE TO WIP REF AIP AD 2 LIRQ 2-5. 22 MAY 22:05 2017 UNTIL
    18 AUG 21:59 2017 ESTIMATED. CREATED: 22 MAY 22:05 2017

---------------------------------------------------------------------------